PLYK1: Cottonwood River, Plymouth, KS

                                SHEF ID:       PLYK1     COTTONWOOD R NR PLYMOUTH, KS
STATION TYPE:
Regulating: Stage = 28.00, Flow = 11886

PRECIP STAGE STAGE(2) RIV-FLOW BAT-LOAD
in ft ft cfs volt
Ccp-Rev Ccp-Rev Ccp-Rev Ccp-Rev Ccp-Rev
(America/Chicago)
06/20 00:00 0.00 25.58 ---- 10146 12.70
06/20 01:00 0.00 25.56 ---- 10132 12.67
06/20 02:00 0.00 25.51 ---- 10097 12.66
06/20 03:00 0.00 25.43 ---- 10042 12.64
06/20 04:00 0.00 25.32 ---- 9966 12.63
06/20 05:00 0.00 25.16 ---- 9856 12.62
06/20 06:00 0.00 24.96 ---- 9719 12.61
06/20 07:00 0.00 24.68 ---- 9529 12.60
06/20 08:00 0.00 24.37 ---- 9321 12.60
06/20 09:00 0.00 23.99 ---- 9069 12.63
06/20 10:00 0.00 23.55 ---- 8780 12.94
06/20 11:00 0.00 23.04 ---- 8451 13.34
06/20 12:00 0.00 22.47 ---- 8089 13.16
06/20 13:00 0.00 21.84 ---- 7698 13.13
06/20 14:00 0.00 21.17 ---- 7291 12.99
06/20 15:00 0.00 20.46 ---- 6870 13.09
06/20 16:00 0.00 19.72 ---- 6444 13.04
06/20 17:00 0.00 18.97 ---- 6024 12.99
06/20 18:00 0.00 18.19 ---- 5600 12.90
06/20 19:00 0.00 17.42 ---- 5195 12.83
06/20 20:00 0.00 16.65 ---- 4804 12.77
06/20 21:00 0.00 15.89 ---- 4431 12.76
06/20 22:00 0.00 15.16 ---- 4085 12.73
06/20 23:00 0.00 14.46 ---- 3766 12.72
Data processed at Sat 21Jun2025 04:06 GMT

Parsing this webpage?

Checkout our new Data API! CWMSDataAPI (CDA)

Timeseries IDs (TSIDs)

TSIDs used from left to right in the data table
PLYM.Precip-Inc.Total.1Hour.1Hour.Ccp-Rev
PLYM.Stage.Inst.1Hour.0.Ccp-Rev
PLYM.Stage-Alt.Inst.1Hour.0.Ccp-Rev
PLYM.Flow.Inst.1Hour.0.Ccp-Rev
PLYM.Volt-Battery Load.Inst.1Hour.0.Ccp-Rev

                            

All information presented herein is the property of the government of the United States of America and may be revised or deleted at any time without prior notice. Dissemination of this information without the expressed written consent of the Public Affairs Office, Tulsa District U.S. Army Corps of Engineers is strictly prohibited. These data are gathered electronically and, as presented, have NOT undergone any form of quality control. These data are NOT guaranteed to be valid or correct.